createdAt,value
2017-03-24T00:01:01.951Z,993.98
2017-03-24T00:02:12.202Z,993.96
2017-03-24T00:03:22.466Z,993.96
2017-03-24T00:04:32.725Z,993.95
2017-03-24T00:05:42.981Z,993.93
2017-03-24T00:06:52.924Z,993.92
2017-03-24T00:08:02.869Z,993.89
2017-03-24T00:09:13.137Z,993.93
2017-03-24T00:10:23.397Z,993.96
2017-03-24T00:11:33.657Z,993.98
2017-03-24T00:12:43.917Z,993.99
2017-03-24T00:13:54.175Z,994
2017-03-24T00:15:04.444Z,994.03
2017-03-24T00:16:14.706Z,994.03
2017-03-24T00:17:24.660Z,994.06
2017-03-24T00:18:34.914Z,993.99
2017-03-24T00:19:44.856Z,993.99
2017-03-24T00:20:55.110Z,993.99
2017-03-24T00:22:05.369Z,994.01
2017-03-24T00:23:15.633Z,994.03
2017-03-24T00:24:25.579Z,993.99
2017-03-24T00:25:35.850Z,994.03
2017-03-24T00:26:45.792Z,994.02
2017-03-24T00:27:56.047Z,994.03
2017-03-24T00:29:06.312Z,994.02
2017-03-24T00:30:16.568Z,994.02
2017-03-24T00:31:26.819Z,994.07
2017-03-24T00:32:37.074Z,994.02
2017-03-24T00:33:47.338Z,994.06
2017-03-24T00:34:57.601Z,994.08
2017-03-24T00:36:07.860Z,994.04
2017-03-24T00:37:18.122Z,994.07
2017-03-24T00:38:28.367Z,994.05
2017-03-24T00:39:38.638Z,994.1
2017-03-24T00:40:48.898Z,994.13
2017-03-24T00:41:59.155Z,994.15
2017-03-24T00:43:09.409Z,994.14
2017-03-24T00:44:19.667Z,994.17
2017-03-24T00:45:29.924Z,994.2
2017-03-24T00:46:39.868Z,994.18
2017-03-24T00:47:50.120Z,994.22
2017-03-24T00:49:00.388Z,994.26
2017-03-24T00:50:10.644Z,994.24
2017-03-24T00:51:20.901Z,994.26
2017-03-24T00:52:30.837Z,994.23
2017-03-24T00:53:40.771Z,994.19
2017-03-24T00:54:51.031Z,994.14
2017-03-24T00:56:01.300Z,994.14
2017-03-24T00:57:11.239Z,994.15
2017-03-24T00:58:21.491Z,994.18
2017-03-24T00:59:31.436Z,994.17
2017-03-24T01:00:41.686Z,994.19
2017-03-24T01:01:51.936Z,994.17
2017-03-24T01:03:02.190Z,994.15
2017-03-24T01:04:12.455Z,994.13
2017-03-24T01:05:22.727Z,994.13
2017-03-24T01:06:32.663Z,994.12
2017-03-24T01:07:42.915Z,994.17
2017-03-24T01:08:53.184Z,994.17
2017-03-24T01:10:03.445Z,994.18
2017-03-24T01:11:13.390Z,994.19
2017-03-24T01:12:23.336Z,994.22
2017-03-24T01:13:33.289Z,994.23
2017-03-24T01:14:43.234Z,994.22
2017-03-24T01:15:53.489Z,994.21
2017-03-24T01:17:03.743Z,994.23
2017-03-24T01:18:13.689Z,994.2
2017-03-24T01:19:23.949Z,994.17
2017-03-24T01:20:34.205Z,994.14
2017-03-24T01:21:44.452Z,994.13
2017-03-24T01:22:54.385Z,994.16
2017-03-24T01:24:04.334Z,994.14
2017-03-24T01:25:13.974Z,994.16
2017-03-24T01:26:24.234Z,994.17
2017-03-24T01:27:34.494Z,994.2
2017-03-24T01:28:44.758Z,994.15
2017-03-24T01:29:55.025Z,994.19
2017-03-24T01:31:05.287Z,994.2
2017-03-24T01:32:15.537Z,994.26
2017-03-24T01:33:25.795Z,994.23
2017-03-24T01:34:35.427Z,994.19
2017-03-24T01:35:45.680Z,994.2
2017-03-24T01:36:55.926Z,994.13
2017-03-24T01:38:05.863Z,994.13
2017-03-24T01:39:16.174Z,994.14
2017-03-24T01:40:26.429Z,994.15
2017-03-24T01:41:36.692Z,994.13
2017-03-24T01:42:46.639Z,994.15
2017-03-24T01:43:56.901Z,994.11
2017-03-24T01:45:06.843Z,994.07
2017-03-24T01:46:16.782Z,994.09
2017-03-24T01:47:27.041Z,994.13
2017-03-24T01:48:37.290Z,994.12
2017-03-24T01:49:47.554Z,994.11
2017-03-24T01:50:57.498Z,994.15
2017-03-24T01:52:07.753Z,994.14
2017-03-24T01:53:17.699Z,994.12
2017-03-24T01:54:27.994Z,994.15
2017-03-24T01:55:37.942Z,994.15
2017-03-24T01:56:48.195Z,994.19
2017-03-24T01:57:58.457Z,994.22
2017-03-24T01:59:08.447Z,994.22
2017-03-24T02:00:18.393Z,994.22
2017-03-24T02:01:28.647Z,994.19
2017-03-24T02:02:38.286Z,994.27
2017-03-24T02:03:48.231Z,994.26
2017-03-24T02:04:58.495Z,994.25
2017-03-24T02:06:08.434Z,994.25
2017-03-24T02:07:18.687Z,994.25
2017-03-24T02:08:28.940Z,994.2
2017-03-24T02:09:39.205Z,994.28
2017-03-24T02:10:49.454Z,994.26
2017-03-24T02:11:59.700Z,994.23
2017-03-24T02:13:09.974Z,994.22
2017-03-24T02:14:20.239Z,994.21
2017-03-24T02:15:30.498Z,994.17
2017-03-24T02:16:40.477Z,994.16
2017-03-24T02:17:50.413Z,994.12
2017-03-24T02:19:02.920Z,994.15
2017-03-24T02:20:13.174Z,994.19
2017-03-24T02:21:23.113Z,994.23
2017-03-24T02:22:33.374Z,994.23
2017-03-24T02:23:43.637Z,994.22
2017-03-24T02:24:53.901Z,994.21
2017-03-24T02:26:03.536Z,994.19
2017-03-24T02:27:13.790Z,994.21
2017-03-24T02:28:24.052Z,994.24
2017-03-24T02:29:34.310Z,994.24
2017-03-24T02:30:44.570Z,994.2
2017-03-24T02:31:54.830Z,994.22
2017-03-24T02:33:04.770Z,994.31
2017-03-24T02:34:14.710Z,994.27
2017-03-24T02:35:24.969Z,994.29
2017-03-24T02:36:35.223Z,994.3
2017-03-24T02:37:45.168Z,994.29
2017-03-24T02:38:55.116Z,994.24
2017-03-24T02:40:05.381Z,994.25
2017-03-24T02:41:15.333Z,994.25
2017-03-24T02:42:25.585Z,994.22
2017-03-24T02:43:35.845Z,994.17
2017-03-24T02:44:45.789Z,994.15
2017-03-24T02:45:56.048Z,994.2
2017-03-24T02:47:06.030Z,994.19
2017-03-24T02:48:16.281Z,994.15
2017-03-24T02:49:25.909Z,994.19
2017-03-24T02:50:35.857Z,994.21
2017-03-24T02:51:46.109Z,994.17
2017-03-24T02:52:56.358Z,994.13
2017-03-24T02:54:06.613Z,994.08
2017-03-24T02:55:16.578Z,994.06
2017-03-24T02:56:26.838Z,994.03
2017-03-24T02:57:37.097Z,993.98
2017-03-24T02:58:47.359Z,994
2017-03-24T02:59:57.611Z,993.95
2017-03-24T03:01:07.558Z,993.95
2017-03-24T03:02:17.811Z,993.91
2017-03-24T03:03:28.068Z,993.93
2017-03-24T03:04:38.327Z,993.92
2017-03-24T03:05:48.590Z,993.94
2017-03-24T03:06:58.842Z,993.99
2017-03-24T03:08:08.791Z,994.01
2017-03-24T03:09:18.739Z,994.03
2017-03-24T03:10:28.999Z,993.99
2017-03-24T03:11:39.380Z,993.97
2017-03-24T03:12:49.331Z,993.99
2017-03-24T03:13:59.273Z,993.99
2017-03-24T03:15:09.533Z,994.02
2017-03-24T03:16:19.472Z,993.98
2017-03-24T03:17:29.718Z,993.99
2017-03-24T03:18:39.972Z,993.98
2017-03-24T03:19:50.231Z,993.98
2017-03-24T03:21:00.490Z,993.99
2017-03-24T03:22:10.740Z,993.97
2017-03-24T03:23:21.000Z,993.98
2017-03-24T03:24:30.629Z,993.99
2017-03-24T03:25:40.589Z,993.98
2017-03-24T03:26:50.879Z,993.97
2017-03-24T03:28:01.131Z,993.96
2017-03-24T03:29:11.076Z,993.9
2017-03-24T03:30:21.331Z,993.9
2017-03-24T03:31:31.265Z,993.88
2017-03-24T03:32:40.894Z,993.87
2017-03-24T03:33:51.151Z,993.94
2017-03-24T03:35:01.415Z,993.9
2017-03-24T03:36:11.679Z,993.9
2017-03-24T03:37:21.968Z,993.92
2017-03-24T03:38:32.289Z,993.91
2017-03-24T03:39:42.548Z,993.87
2017-03-24T03:40:52.810Z,993.89
2017-03-24T03:42:03.061Z,993.91
2017-03-24T03:43:13.319Z,993.9
2017-03-24T03:44:23.580Z,993.88
2017-03-24T03:45:33.845Z,993.89
2017-03-24T03:46:43.473Z,993.9
2017-03-24T03:47:53.725Z,993.91
2017-03-24T03:49:03.989Z,993.85
2017-03-24T03:50:14.244Z,993.84
2017-03-24T03:51:24.186Z,993.84
2017-03-24T03:52:33.824Z,993.84
2017-03-24T03:53:44.081Z,993.85
2017-03-24T03:54:54.338Z,993.88
2017-03-24T03:56:04.593Z,993.83
2017-03-24T03:57:14.538Z,993.87
2017-03-24T03:58:24.786Z,993.85
2017-03-24T03:59:35.047Z,993.89
2017-03-24T04:00:45.309Z,993.88
2017-03-24T04:01:55.560Z,993.9
2017-03-24T04:03:05.507Z,993.88
2017-03-24T04:04:15.769Z,993.86
2017-03-24T04:05:26.029Z,993.88
2017-03-24T04:06:36.274Z,993.86
2017-03-24T04:07:46.527Z,993.88
2017-03-24T04:08:56.788Z,993.89
2017-03-24T04:10:07.049Z,993.87
2017-03-24T04:11:16.988Z,993.88
2017-03-24T04:12:27.244Z,993.86
2017-03-24T04:13:37.507Z,993.91
2017-03-24T04:14:47.782Z,993.9
2017-03-24T04:15:58.041Z,993.93
2017-03-24T04:17:07.991Z,993.88
2017-03-24T04:18:18.245Z,993.85
2017-03-24T04:19:28.503Z,993.83
2017-03-24T04:20:38.456Z,993.82
2017-03-24T04:21:48.711Z,993.78
2017-03-24T04:22:58.967Z,993.79
2017-03-24T04:24:09.250Z,993.79
2017-03-24T04:25:19.521Z,993.78
2017-03-24T04:26:29.777Z,993.76
2017-03-24T04:27:40.025Z,993.75
2017-03-24T04:28:50.285Z,993.75
2017-03-24T04:30:00.548Z,993.76
2017-03-24T04:31:10.174Z,993.81
2017-03-24T04:32:20.428Z,993.77
2017-03-24T04:33:30.679Z,993.84
2017-03-24T04:34:40.945Z,993.83
2017-03-24T04:35:51.213Z,993.79
2017-03-24T04:37:01.469Z,993.79
2017-03-24T04:38:11.730Z,993.77
2017-03-24T04:39:21.987Z,993.81
2017-03-24T04:40:32.247Z,993.81
2017-03-24T04:41:42.512Z,993.78
2017-03-24T04:42:52.452Z,993.76
2017-03-24T04:44:02.407Z,993.75
2017-03-24T04:45:12.672Z,993.75
2017-03-24T04:46:22.928Z,993.75
2017-03-24T04:47:32.873Z,993.76
2017-03-24T04:48:42.822Z,993.75
2017-03-24T04:49:53.114Z,993.69
2017-03-24T04:51:03.055Z,993.64
2017-03-24T04:52:13.320Z,993.65
2017-03-24T04:53:23.573Z,993.58
2017-03-24T04:54:33.821Z,993.65
2017-03-24T04:55:44.077Z,993.62
2017-03-24T04:56:54.335Z,993.68
2017-03-24T04:58:04.585Z,993.67
2017-03-24T04:59:14.534Z,993.65
2017-03-24T05:00:24.802Z,993.68
2017-03-24T05:01:34.743Z,993.66
2017-03-24T05:02:44.996Z,993.71
2017-03-24T05:03:54.626Z,993.74
2017-03-24T05:05:04.883Z,993.74
2017-03-24T05:06:15.152Z,993.79
2017-03-24T05:07:25.402Z,993.8
2017-03-24T05:08:35.662Z,993.78
2017-03-24T05:09:45.926Z,993.77
2017-03-24T05:10:56.192Z,993.74
2017-03-24T05:12:06.444Z,993.73
2017-03-24T05:13:16.386Z,993.73
2017-03-24T05:14:26.651Z,993.68
2017-03-24T05:15:36.927Z,993.72
2017-03-24T05:16:47.184Z,993.71
2017-03-24T05:17:57.444Z,993.75
2017-03-24T05:19:07.709Z,993.8
2017-03-24T05:20:17.658Z,993.82
2017-03-24T05:21:27.915Z,993.85
2017-03-24T05:22:38.175Z,993.84
2017-03-24T05:23:48.434Z,993.88
2017-03-24T05:24:58.692Z,993.84
2017-03-24T05:26:08.936Z,993.84
2017-03-24T05:27:18.881Z,993.82
2017-03-24T05:28:28.826Z,993.8
2017-03-24T05:29:39.084Z,993.84
2017-03-24T05:30:49.023Z,993.81
2017-03-24T05:31:59.274Z,993.86
2017-03-24T05:33:09.222Z,993.81
2017-03-24T05:34:19.480Z,993.81
2017-03-24T05:35:29.744Z,993.85
2017-03-24T05:36:39.691Z,993.88
2017-03-24T05:37:49.652Z,993.88
2017-03-24T05:38:59.926Z,993.95
2017-03-24T05:40:10.187Z,993.99
2017-03-24T05:41:20.443Z,993.96
2017-03-24T05:42:30.382Z,993.91
2017-03-24T05:43:40.647Z,993.9
2017-03-24T05:44:50.915Z,993.87
2017-03-24T05:46:01.176Z,993.86
2017-03-24T05:47:11.120Z,993.85
2017-03-24T05:48:21.374Z,993.84
2017-03-24T05:49:31.636Z,993.82
2017-03-24T05:50:41.909Z,993.83
2017-03-24T05:51:52.161Z,993.8
2017-03-24T05:53:02.408Z,993.79
2017-03-24T05:54:12.670Z,993.83
2017-03-24T05:55:22.938Z,993.82
2017-03-24T05:56:33.192Z,993.81
2017-03-24T05:57:43.449Z,993.79
2017-03-24T05:58:53.708Z,993.8
2017-03-24T06:00:03.975Z,993.82
2017-03-24T06:01:14.580Z,993.82
2017-03-24T06:02:24.833Z,993.75
2017-03-24T06:03:34.771Z,993.75
2017-03-24T06:04:45.026Z,993.76
2017-03-24T06:05:55.281Z,993.75
2017-03-24T06:07:05.219Z,993.72
2017-03-24T06:08:15.165Z,993.69
2017-03-24T06:09:25.110Z,993.69
2017-03-24T06:10:35.366Z,993.73
2017-03-24T06:11:45.618Z,993.81
2017-03-24T06:12:55.864Z,993.77
2017-03-24T06:14:06.121Z,993.84
2017-03-24T06:15:16.389Z,993.79
2017-03-24T06:16:26.648Z,993.84
2017-03-24T06:17:36.279Z,993.87
2017-03-24T06:18:46.230Z,993.89
2017-03-24T06:19:56.177Z,993.85
2017-03-24T06:21:06.437Z,993.85
2017-03-24T06:22:16.693Z,993.81
2017-03-24T06:23:26.948Z,993.84
2017-03-24T06:24:37.220Z,993.83
2017-03-24T06:25:47.478Z,993.85
2017-03-24T06:26:57.737Z,993.86
2017-03-24T06:28:08.033Z,993.78
2017-03-24T06:29:17.665Z,993.79
2017-03-24T06:30:27.614Z,993.79
2017-03-24T06:31:37.236Z,993.77
2017-03-24T06:32:47.489Z,993.77
2017-03-24T06:33:57.751Z,993.75
2017-03-24T06:35:07.703Z,993.8
2017-03-24T06:36:17.960Z,993.79
2017-03-24T06:37:28.219Z,993.79
2017-03-24T06:38:38.170Z,993.82
2017-03-24T06:39:48.441Z,993.81
2017-03-24T06:40:58.388Z,993.79
2017-03-24T06:42:08.643Z,993.79
2017-03-24T06:43:18.897Z,993.82
2017-03-24T06:44:28.853Z,993.86
2017-03-24T06:45:39.109Z,993.89
2017-03-24T06:46:49.359Z,993.87
2017-03-24T06:47:59.617Z,993.85
2017-03-24T06:49:09.559Z,993.85
2017-03-24T06:50:19.820Z,993.8
2017-03-24T06:51:29.766Z,993.84
2017-03-24T06:52:39.390Z,993.84
2017-03-24T06:53:49.338Z,993.81
2017-03-24T06:54:59.603Z,993.84
2017-03-24T06:56:09.908Z,993.89
2017-03-24T06:57:20.160Z,993.95
2017-03-24T06:58:30.417Z,993.91
2017-03-24T06:59:40.682Z,993.95
2017-03-24T07:00:50.938Z,993.95
2017-03-24T07:02:01.189Z,993.89
2017-03-24T07:03:11.448Z,993.93
2017-03-24T07:04:21.706Z,993.91
2017-03-24T07:05:31.977Z,993.94
2017-03-24T07:06:42.233Z,993.93
2017-03-24T07:07:52.493Z,993.93
2017-03-24T07:09:02.443Z,993.92
2017-03-24T07:10:12.706Z,993.94
2017-03-24T07:11:22.663Z,993.91
2017-03-24T07:12:32.921Z,993.99
2017-03-24T07:13:42.872Z,993.96
2017-03-24T07:14:52.508Z,994.04
2017-03-24T07:16:02.762Z,993.96
2017-03-24T07:17:13.026Z,993.94
2017-03-24T07:18:23.280Z,993.94
2017-03-24T07:19:32.913Z,993.91
2017-03-24T07:20:42.858Z,993.87
2017-03-24T07:21:53.129Z,993.84
2017-03-24T07:23:03.074Z,993.84
2017-03-24T07:24:13.031Z,993.86
2017-03-24T07:25:23.295Z,993.87
2017-03-24T07:26:33.554Z,993.85
2017-03-24T07:27:43.819Z,993.85
2017-03-24T07:28:54.084Z,993.87
2017-03-24T07:30:04.355Z,993.83
2017-03-24T07:31:14.628Z,993.91
2017-03-24T07:32:24.897Z,993.88
2017-03-24T07:33:35.160Z,993.91
2017-03-24T07:34:45.104Z,993.91
2017-03-24T07:35:55.054Z,993.87
2017-03-24T07:37:04.712Z,993.87
2017-03-24T07:38:14.974Z,993.87
2017-03-24T07:39:25.236Z,993.9
2017-03-24T07:40:35.501Z,993.89
2017-03-24T07:41:45.755Z,993.89
2017-03-24T07:42:56.008Z,993.87
2017-03-24T07:44:06.270Z,993.86
2017-03-24T07:45:16.553Z,993.81
2017-03-24T07:46:26.493Z,993.82
2017-03-24T07:47:36.444Z,993.77
2017-03-24T07:48:46.724Z,993.76
2017-03-24T07:49:57.840Z,993.74
2017-03-24T07:51:07.784Z,993.71
2017-03-24T07:52:18.041Z,993.69
2017-03-24T07:53:28.305Z,993.74
2017-03-24T07:54:38.254Z,993.69
2017-03-24T07:55:48.196Z,993.68
2017-03-24T07:56:57.821Z,993.63
2017-03-24T07:58:08.079Z,993.65
2017-03-24T07:59:18.335Z,993.62
2017-03-24T08:00:28.591Z,993.6
2017-03-24T08:01:38.849Z,993.58
2017-03-24T08:02:49.107Z,993.55
2017-03-24T08:03:59.050Z,993.55
2017-03-24T08:05:09.305Z,993.51
2017-03-24T08:06:19.252Z,993.5
2017-03-24T08:07:29.503Z,993.46
2017-03-24T08:08:39.459Z,993.45
2017-03-24T08:09:49.712Z,993.46
2017-03-24T08:10:59.968Z,993.46
2017-03-24T08:12:09.908Z,993.53
2017-03-24T08:13:20.170Z,993.59
2017-03-24T08:14:30.120Z,993.65
2017-03-24T08:15:40.376Z,993.57
2017-03-24T08:16:50.319Z,993.52
2017-03-24T08:18:00.263Z,993.51
2017-03-24T08:19:10.513Z,993.54
2017-03-24T08:20:20.454Z,993.6
2017-03-24T08:21:30.399Z,993.58
2017-03-24T08:22:40.647Z,993.57
2017-03-24T08:23:50.907Z,993.56
2017-03-24T08:25:01.157Z,993.58
2017-03-24T08:26:10.790Z,993.56
2017-03-24T08:27:21.045Z,993.61
2017-03-24T08:28:31.294Z,993.62
2017-03-24T08:29:41.551Z,993.61
2017-03-24T08:30:51.802Z,993.69
2017-03-24T08:32:01.747Z,993.68
2017-03-24T08:33:12.005Z,993.63
2017-03-24T08:34:22.256Z,993.61
2017-03-24T08:35:32.509Z,993.59
2017-03-24T08:36:42.769Z,993.55
2017-03-24T08:37:52.402Z,993.54
2017-03-24T08:39:02.659Z,993.55
2017-03-24T08:40:12.915Z,993.56
2017-03-24T08:41:22.856Z,993.56
2017-03-24T08:42:32.813Z,993.59
2017-03-24T08:43:43.075Z,993.62
2017-03-24T08:44:53.332Z,993.59
2017-03-24T08:46:03.001Z,993.59
2017-03-24T08:47:12.945Z,993.57
2017-03-24T08:48:23.206Z,993.6
2017-03-24T08:49:33.460Z,993.56
2017-03-24T08:50:43.089Z,993.62
2017-03-24T08:51:53.359Z,993.65
2017-03-24T08:53:03.299Z,993.63
2017-03-24T08:54:13.554Z,993.66
2017-03-24T08:55:23.499Z,993.65
2017-03-24T08:56:33.448Z,993.67
2017-03-24T08:57:43.704Z,993.72
2017-03-24T08:58:53.963Z,993.65
2017-03-24T09:00:03.910Z,993.68
2017-03-24T09:01:14.170Z,993.64
2017-03-24T09:02:23.800Z,993.64
2017-03-24T09:03:33.738Z,993.68
2017-03-24T09:04:43.994Z,993.7
2017-03-24T09:05:53.624Z,993.71
2017-03-24T09:07:03.882Z,993.73
2017-03-24T09:08:13.509Z,993.64
2017-03-24T09:09:23.774Z,993.67
2017-03-24T09:10:34.033Z,993.67
2017-03-24T09:11:44.296Z,993.65
2017-03-24T09:12:54.239Z,993.64
2017-03-24T09:14:04.499Z,993.67
2017-03-24T09:15:14.754Z,993.59
2017-03-24T09:16:24.388Z,993.65
2017-03-24T09:17:34.332Z,993.67
2017-03-24T09:18:44.273Z,993.67
2017-03-24T09:19:54.526Z,993.59
2017-03-24T09:21:04.471Z,993.63
2017-03-24T09:22:14.732Z,993.58
2017-03-24T09:23:24.993Z,993.54
2017-03-24T09:24:35.275Z,993.52
2017-03-24T09:25:45.233Z,993.53
2017-03-24T09:26:55.176Z,993.54
2017-03-24T09:28:05.122Z,993.53
2017-03-24T09:29:15.382Z,993.48
2017-03-24T09:30:25.638Z,993.48
2017-03-24T09:31:35.892Z,993.46
2017-03-24T09:32:46.150Z,993.42
2017-03-24T09:33:56.095Z,993.43
2017-03-24T09:35:06.040Z,993.46
2017-03-24T09:36:16.299Z,993.45
2017-03-24T09:37:26.559Z,993.46
2017-03-24T09:38:36.815Z,993.44
2017-03-24T09:39:46.448Z,993.42
2017-03-24T09:40:56.392Z,993.4
2017-03-24T09:42:06.660Z,993.42
2017-03-24T09:43:16.919Z,993.47
2017-03-24T09:44:27.180Z,993.44
2017-03-24T09:45:37.125Z,993.49
2017-03-24T09:46:46.442Z,993.47
2017-03-24T09:47:56.390Z,993.47
2017-03-24T09:49:06.354Z,993.52
2017-03-24T09:50:16.610Z,993.59
2017-03-24T09:51:26.864Z,993.64
2017-03-24T09:52:36.804Z,993.67
2017-03-24T09:53:47.059Z,993.66
2017-03-24T09:54:56.376Z,993.62
2017-03-24T09:56:06.325Z,993.62
2017-03-24T09:57:15.954Z,993.59
2017-03-24T09:58:25.594Z,993.57
2017-03-24T09:59:35.856Z,993.58
2017-03-24T10:00:45.808Z,993.6
2017-03-24T10:01:56.070Z,993.65
2017-03-24T10:03:06.025Z,993.63
2017-03-24T10:04:15.977Z,993.67
2017-03-24T10:05:25.921Z,993.65
2017-03-24T10:06:36.176Z,993.59
2017-03-24T10:07:46.439Z,993.62
2017-03-24T10:08:56.377Z,993.56
2017-03-24T10:10:06.316Z,993.53
2017-03-24T10:11:16.256Z,993.53
2017-03-24T10:12:26.198Z,993.52
2017-03-24T10:13:36.141Z,993.54
2017-03-24T10:14:46.402Z,993.51
2017-03-24T10:15:56.700Z,993.56
2017-03-24T10:17:06.645Z,993.61
2017-03-24T10:18:16.901Z,993.59
2017-03-24T10:19:26.847Z,993.57
2017-03-24T10:20:36.485Z,993.53
2017-03-24T10:21:46.738Z,993.53
2017-03-24T10:22:56.681Z,993.59
2017-03-24T10:24:06.932Z,993.52
2017-03-24T10:25:16.877Z,993.57
2017-03-24T10:26:26.818Z,993.58
2017-03-24T10:27:37.072Z,993.51
2017-03-24T10:28:47.338Z,993.55
2017-03-24T10:29:57.735Z,993.45
2017-03-24T10:31:07.677Z,993.53
2017-03-24T10:32:17.622Z,993.61
2017-03-24T10:33:27.882Z,993.55
2017-03-24T10:34:38.152Z,993.58
2017-03-24T10:35:48.101Z,993.65
2017-03-24T10:36:58.065Z,993.61
2017-03-24T10:38:08.325Z,993.64
2017-03-24T10:39:18.267Z,993.72
2017-03-24T10:40:28.524Z,993.69
2017-03-24T10:41:38.782Z,993.64
2017-03-24T10:42:49.044Z,993.57
2017-03-24T10:43:58.989Z,993.49
2017-03-24T10:45:09.251Z,993.53
2017-03-24T10:46:19.243Z,993.6
2017-03-24T10:47:29.188Z,993.52
2017-03-24T10:48:39.445Z,993.58
2017-03-24T10:49:49.702Z,993.54
2017-03-24T10:50:59.647Z,993.5
2017-03-24T10:52:09.590Z,993.4
2017-03-24T10:53:19.535Z,993.42
2017-03-24T10:54:29.796Z,993.41
2017-03-24T10:55:39.428Z,993.4
2017-03-24T10:56:49.689Z,993.43
2017-03-24T10:57:59.989Z,993.44
2017-03-24T10:59:09.939Z,993.47
2017-03-24T11:00:20.224Z,993.51
2017-03-24T11:01:30.488Z,993.5
2017-03-24T11:02:40.746Z,993.44
2017-03-24T11:03:51.000Z,993.46
2017-03-24T11:05:01.255Z,993.5
2017-03-24T11:06:11.215Z,993.56
2017-03-24T11:07:21.474Z,993.54
2017-03-24T11:08:31.748Z,993.47
2017-03-24T11:09:41.689Z,993.35
2017-03-24T11:10:51.947Z,993.33
2017-03-24T11:12:01.611Z,993.29
2017-03-24T11:13:11.552Z,993.2
2017-03-24T11:14:21.490Z,993.24
2017-03-24T11:15:31.746Z,993.29
2017-03-24T11:16:42.006Z,993.35
2017-03-24T11:17:51.944Z,993.19
2017-03-24T11:19:01.568Z,993.22
2017-03-24T11:20:11.829Z,993.26
2017-03-24T11:21:21.770Z,993.22
2017-03-24T11:22:31.710Z,993.17
2017-03-24T11:23:41.974Z,993.21
2017-03-24T11:24:52.235Z,993.24
2017-03-24T11:26:02.498Z,993.29
2017-03-24T11:27:12.124Z,993.43
2017-03-24T11:28:22.382Z,993.32
2017-03-24T11:29:32.639Z,993.39
2017-03-24T11:30:42.579Z,993.29
2017-03-24T11:31:52.515Z,993.33
2017-03-24T11:33:02.460Z,993.32
2017-03-24T11:34:12.714Z,993.49
2017-03-24T11:35:22.969Z,993.39
2017-03-24T11:36:32.910Z,993.42
2017-03-24T11:37:43.164Z,993.45
2017-03-24T11:38:53.422Z,993.45
2017-03-24T11:40:03.673Z,993.48
2017-03-24T11:41:13.929Z,993.45
2017-03-24T11:42:23.875Z,993.37
2017-03-24T11:43:34.134Z,993.38
2017-03-24T11:44:43.798Z,993.36
2017-03-24T11:45:54.051Z,993.5
2017-03-24T11:47:04.319Z,993.33
2017-03-24T11:48:14.265Z,993.26
2017-03-24T11:49:24.521Z,993.44
2017-03-24T11:50:34.463Z,993.47
2017-03-24T11:51:44.721Z,993.28
2017-03-24T11:52:54.980Z,993.27
2017-03-24T11:54:04.608Z,993.29
2017-03-24T11:55:14.559Z,993.38
2017-03-24T11:56:24.193Z,993.38
2017-03-24T11:57:34.820Z,993.47
2017-03-24T11:58:44.461Z,993.49
2017-03-24T11:59:54.427Z,993.71
2017-03-24T12:01:04.369Z,993.44
2017-03-24T12:02:14.311Z,993.44
2017-03-24T12:03:23.948Z,993.38
2017-03-24T12:04:34.209Z,993.37
2017-03-24T12:05:44.477Z,993.49
2017-03-24T12:06:54.414Z,993.43
2017-03-24T12:08:04.046Z,993.43
2017-03-24T12:09:13.681Z,993.58
2017-03-24T12:10:23.981Z,993.58
2017-03-24T12:11:34.240Z,993.61
2017-03-24T12:12:44.182Z,993.68
2017-03-24T12:13:54.439Z,993.53
2017-03-24T12:15:04.405Z,993.53
2017-03-24T12:16:14.036Z,993.51
2017-03-24T12:17:24.291Z,993.53
2017-03-24T12:18:34.579Z,993.67
2017-03-24T12:19:44.525Z,993.45
2017-03-24T12:20:54.780Z,993.43
2017-03-24T12:22:04.099Z,993.43
2017-03-24T12:23:14.054Z,993.4
2017-03-24T12:24:23.677Z,993.44
2017-03-24T12:25:33.618Z,993.36
2017-03-24T12:26:43.874Z,993.37
2017-03-24T12:27:53.819Z,993.41
2017-03-24T12:29:04.075Z,993.38
2017-03-24T12:30:14.022Z,993.4
2017-03-24T12:31:24.281Z,993.47
2017-03-24T12:32:34.545Z,993.44
2017-03-24T12:33:44.488Z,993.51
2017-03-24T12:34:54.433Z,993.56
2017-03-24T12:36:04.689Z,993.53
2017-03-24T12:37:14.944Z,993.54
2017-03-24T12:38:25.202Z,993.5
2017-03-24T12:39:35.463Z,993.47
2017-03-24T12:40:45.089Z,993.55
2017-03-24T12:41:54.720Z,993.48
2017-03-24T12:43:04.980Z,993.45
2017-03-24T12:44:14.609Z,993.43
2017-03-24T12:45:24.862Z,993.48
2017-03-24T12:46:34.195Z,993.46
2017-03-24T12:47:44.133Z,993.48
2017-03-24T12:48:53.769Z,993.45
2017-03-24T12:50:04.025Z,993.47
2017-03-24T12:51:13.979Z,993.44
2017-03-24T12:52:24.245Z,993.38
2017-03-24T12:53:34.186Z,993.31
2017-03-24T12:54:44.442Z,993.39
2017-03-24T12:55:54.701Z,993.27
2017-03-24T12:57:04.327Z,993.34
2017-03-24T12:58:14.584Z,993.26
2017-03-24T12:59:24.211Z,993.16
2017-03-24T13:00:33.840Z,993.1
2017-03-24T13:01:43.472Z,993.08
2017-03-24T13:02:53.778Z,993.11
2017-03-24T13:04:04.037Z,993.04
2017-03-24T13:05:13.983Z,992.94
2017-03-24T13:06:24.246Z,993.02
2017-03-24T13:07:33.875Z,993.01
2017-03-24T13:08:44.128Z,993.05
2017-03-24T13:09:54.392Z,993.04
2017-03-24T13:11:04.660Z,992.92
2017-03-24T13:12:14.926Z,992.98
2017-03-24T13:13:25.177Z,992.96
2017-03-24T13:14:35.429Z,992.83
2017-03-24T13:15:45.062Z,992.83
2017-03-24T13:16:55.002Z,992.78
2017-03-24T13:18:05.259Z,992.77
2017-03-24T13:19:14.580Z,992.78
2017-03-24T13:20:23.897Z,992.72
2017-03-24T13:21:33.845Z,992.75
2017-03-24T13:22:44.114Z,992.72
2017-03-24T13:23:54.365Z,992.73
2017-03-24T13:25:04.347Z,992.69
2017-03-24T13:26:14.020Z,992.72
2017-03-24T13:27:23.970Z,992.69
2017-03-24T13:28:33.608Z,992.66
2017-03-24T13:29:43.862Z,992.61
2017-03-24T13:30:53.804Z,992.6
2017-03-24T13:32:04.062Z,992.53
2017-03-24T13:33:14.321Z,992.51
2017-03-24T13:34:24.266Z,992.59
2017-03-24T13:35:33.577Z,992.6
2017-03-24T13:36:43.521Z,992.64
2017-03-24T13:37:53.465Z,992.63
2017-03-24T13:39:03.091Z,992.58
2017-03-24T13:40:12.401Z,992.62
2017-03-24T13:41:22.656Z,992.6
2017-03-24T13:42:32.914Z,992.65
2017-03-24T13:43:43.176Z,992.68
2017-03-24T13:44:53.431Z,992.7
2017-03-24T13:46:03.373Z,992.7
2017-03-24T13:47:13.035Z,992.67
2017-03-24T13:48:22.973Z,992.65
2017-03-24T13:49:33.225Z,992.63
2017-03-24T13:50:43.169Z,992.62
2017-03-24T13:51:53.425Z,992.6
2017-03-24T13:53:03.363Z,992.6
2017-03-24T13:54:13.619Z,992.57
2017-03-24T13:55:23.887Z,992.5
2017-03-24T13:56:34.143Z,992.49
2017-03-24T13:57:43.158Z,992.45
2017-03-24T13:58:53.412Z,992.49
2017-03-24T14:00:03.663Z,992.43
2017-03-24T14:01:13.606Z,992.47
2017-03-24T14:02:23.907Z,992.47
2017-03-24T14:03:34.162Z,992.43
2017-03-24T14:04:44.102Z,992.41
2017-03-24T14:05:54.361Z,992.38
2017-03-24T14:07:04.301Z,992.36
2017-03-24T14:08:14.556Z,992.32
2017-03-24T14:09:24.493Z,992.33
2017-03-24T14:10:34.449Z,992.33
2017-03-24T14:11:44.408Z,992.37
2017-03-24T14:12:54.348Z,992.36
2017-03-24T14:14:04.291Z,992.38
2017-03-24T14:15:14.231Z,992.33
2017-03-24T14:16:24.172Z,992.34
2017-03-24T14:17:34.431Z,992.29
2017-03-24T14:18:44.371Z,992.26
2017-03-24T14:19:54.667Z,992.25
2017-03-24T14:21:04.622Z,992.3
2017-03-24T14:22:14.875Z,992.26
2017-03-24T14:23:25.135Z,992.19
2017-03-24T14:24:35.391Z,992.21
2017-03-24T14:25:45.645Z,992.21
2017-03-24T14:26:54.964Z,992.2
2017-03-24T14:28:05.225Z,992.21
2017-03-24T14:29:15.485Z,992.24
2017-03-24T14:30:25.110Z,992.25
2017-03-24T14:31:35.062Z,992.16
2017-03-24T14:32:45.321Z,992.13
2017-03-24T14:33:54.946Z,992.16
2017-03-24T14:35:04.578Z,992.12
2017-03-24T14:36:14.212Z,992.14
2017-03-24T14:37:24.199Z,992.07